Time;durP1;ratioP1;P1;durP2;ratioP2;P2;SDS_P1;SDS_P2;PMS_P1;PMS_P2;Temp;Humidity;BMP_temperature;BMP_pressure;BME280_temperature;BME280_humidity;BME280_pressure;Samples;Min_cycle;Max_cycle;Signal;HPM_P1;HPM_P2
2023/01/21 00:01:49;;;;;;;17.47;16.20;;;2.40;24.50;;;;;;5011055;28;20181;-74
2023/01/21 00:04:14;;;;;;;17.03;15.93;;;2.50;24.50;;;;;;5009102;28;20197;-75
2023/01/21 00:06:40;;;;;;;16.50;15.40;;;2.60;24.50;;;;;;5010445;28;20296;-75
2023/01/21 00:09:07;;;;;;;17.17;16.07;;;2.40;24.70;;;;;;5011116;28;20676;-75
2023/01/21 00:11:32;;;;;;;17.47;16.20;;;2.40;24.90;;;;;;5010479;28;20189;-75
2023/01/21 00:13:58;;;;;;;17.53;16.33;;;2.60;25.00;;;;;;5012271;28;20906;-75
2023/01/21 00:16:23;;;;;;;17.53;16.20;;;2.70;24.40;;;;;;5010930;28;20738;-75
2023/01/21 00:18:49;;;;;;;17.47;16.30;;;2.80;24.20;;;;;;5010963;28;20185;-75
2023/01/21 00:21:15;;;;;;;15.50;14.50;;;2.80;24.30;;;;;;5011059;28;20271;-75
2023/01/21 00:23:40;;;;;;;15.80;14.70;;;2.90;23.60;;;;;;5010980;28;20181;-75
2023/01/21 00:26:09;;;;;;;16.60;15.50;;;2.80;24.00;;;;;;5010140;28;20213;-75
2023/01/21 00:28:35;;;;;;;17.03;15.93;;;3.10;23.80;;;;;;5009070;28;20185;-74
2023/01/21 00:31:04;;;;;;;16.93;15.63;;;3.30;22.90;;;;;;5009238;28;20412;-75
2023/01/21 00:33:31;;;;;;;15.13;14.13;;;3.60;22.30;;;;;;5010377;28;20415;-75
2023/01/21 00:36:21;;;;;;;16.03;14.93;;;3.50;21.80;;;;;;5010084;28;20432;-74
2023/01/21 00:38:49;;;;;;;15.60;14.60;;;3.20;22.00;;;;;;5009720;28;20411;-75
2023/01/21 00:41:16;;;;;;;16.17;14.50;;;3.20;22.50;;;;;;5010208;28;20420;-75
2023/01/21 00:43:43;;;;;;;15.47;14.30;;;3.20;22.70;;;;;;5010499;28;20404;-74
2023/01/21 00:46:10;;;;;;;16.20;15.03;;;3.30;22.40;;;;;;5010425;28;20459;-75
2023/01/21 00:48:36;;;;;;;15.60;14.60;;;3.50;22.20;;;;;;5010416;28;20420;-75
2023/01/21 00:51:02;;;;;;;17.37;16.03;;;3.60;21.90;;;;;;5009308;28;20919;-74
2023/01/21 00:53:30;;;;;;;16.93;15.73;;;3.70;21.60;;;;;;5009291;28;20423;-75
2023/01/21 00:56:00;;;;;;;15.37;14.43;;;3.40;21.70;;;;;;5010429;28;20440;-75
2023/01/21 00:58:26;;;;;;;15.93;14.83;;;3.30;22.30;;;;;;5009458;28;20424;-74
2023/01/21 01:01:06;;;;;;;18.30;17.00;;;3.30;22.10;;;;;;4992717;28;20412;-74
2023/01/21 01:03:33;;;;;;;15.73;14.73;;;3.00;22.80;;;;;;5009035;28;20420;-74
2023/01/21 01:06:20;;;;;;;17.30;16.20;;;2.90;23.40;;;;;;5008897;28;20808;-74
2023/01/21 01:08:46;;;;;;;16.23;15.13;;;3.10;23.10;;;;;;5009923;28;20404;-75
2023/01/21 01:11:13;;;;;;;17.30;16.20;;;3.30;22.70;;;;;;5009681;28;20499;-75
2023/01/21 01:13:39;;;;;;;18.10;16.70;;;3.30;22.50;;;;;;5010398;28;20416;-75
2023/01/21 01:16:05;;;;;;;16.63;15.53;;;3.30;23.20;;;;;;5010163;28;20448;-75
2023/01/21 01:18:33;;;;;;;17.73;16.50;;;3.20;22.90;;;;;;5010698;28;20260;-75
2023/01/21 01:20:59;;;;;;;16.93;15.70;;;3.40;22.50;;;;;;5010298;28;20417;-74
2023/01/21 01:23:25;;;;;;;17.97;16.77;;;3.40;22.70;;;;;;5010446;28;20413;-74
2023/01/21 01:25:59;;;;;;;18.10;16.97;;;3.40;22.60;;;;;;5008027;28;20471;-74
2023/01/21 01:28:25;;;;;;;18.93;17.43;;;3.50;22.10;;;;;;5009218;28;20191;-75
2023/01/21 01:30:51;;;;;;;17.90;16.70;;;3.60;22.20;;;;;;5009806;28;21257;-75
2023/01/21 01:33:18;;;;;;;17.93;16.70;;;3.60;22.00;;;;;;5009603;28;20400;-74
2023/01/21 01:35:46;;;;;;;17.73;16.37;;;3.70;22.20;;;;;;5008581;28;20506;-75
2023/01/21 01:38:12;;;;;;;17.10;16.00;;;3.80;21.70;;;;;;5009676;28;20450;-75
2023/01/21 01:40:39;;;;;;;16.13;14.93;;;3.90;21.50;;;;;;5010246;28;20408;-75
2023/01/21 01:43:17;;;;;;;17.37;16.13;;;4.00;21.20;;;;;;5011494;28;20416;-75
2023/01/21 01:45:43;;;;;;;16.90;15.60;;;3.80;21.90;;;;;;5018800;28;20571;-75
2023/01/21 01:48:14;;;;;;;16.57;15.40;;;3.70;22.00;;;;;;5016444;28;20408;-74
2023/01/21 01:50:40;;;;;;;16.70;15.37;;;3.70;21.70;;;;;;5016891;28;20925;-74
2023/01/21 01:53:07;;;;;;;17.07;15.93;;;3.80;22.00;;;;;;5014321;28;20417;-75
2023/01/21 01:55:35;;;;;;;15.87;14.97;;;3.70;21.50;;;;;;4995687;28;20436;-74
2023/01/21 01:58:03;;;;;;;14.83;13.83;;;3.80;21.20;;;;;;5013347;28;20404;-75
2023/01/21 02:00:29;;;;;;;17.63;16.27;;;3.80;21.30;;;;;;5013788;28;20417;-75
2023/01/21 02:05:41;;;;;;;17.03;15.93;;;3.80;21.60;;;;;;5013154;28;20427;-73
2023/01/21 02:08:07;;;;;;;17.13;15.83;;;3.80;21.50;;;;;;5013376;28;20404;-75
2023/01/21 02:10:33;;;;;;;18.60;17.30;;;3.80;21.50;;;;;;5012055;28;20412;-75
2023/01/21 02:13:00;;;;;;;19.13;17.83;;;3.70;22.10;;;;;;5011764;28;20582;-75
2023/01/21 02:15:35;;;;;;;18.93;17.63;;;3.60;22.20;;;;;;5012541;28;20437;-74
2023/01/21 02:18:22;;;;;;;18.33;17.03;;;3.60;22.70;;;;;;5012638;28;20419;-75
2023/01/21 02:21:39;;;;;;;19.40;17.43;;;3.60;22.40;;;;;;5014321;28;20431;-76
2023/01/21 02:24:16;;;;;;;19.53;17.90;;;3.70;22.80;;;;;;4976118;28;20408;-75
2023/01/21 02:27:15;;;;;;;19.50;18.30;;;3.70;22.90;;;;;;5012146;28;20482;-75
2023/01/21 02:30:18;;;;;;;18.73;17.50;;;3.70;22.60;;;;;;5013539;28;20799;-75
2023/01/21 02:33:02;;;;;;;19.03;17.80;;;3.60;23.20;;;;;;5012618;28;20404;-75
2023/01/21 02:35:53;;;;;;;20.30;18.90;;;3.50;23.30;;;;;;5028063;28;20432;-75
2023/01/21 02:39:02;;;;;;;19.03;17.73;;;3.30;23.80;;;;;;5012867;28;20413;-75
2023/01/21 02:41:46;;;;;;;20.70;19.10;;;3.40;23.60;;;;;;4989772;28;20945;-75
2023/01/21 02:44:23;;;;;;;19.57;18.10;;;3.60;23.10;;;;;;5012935;28;20440;-73
2023/01/21 02:46:57;;;;;;;20.37;18.97;;;3.70;23.00;;;;;;5020798;28;20969;-75
2023/01/21 02:49:51;;;;;;;21.50;20.00;;;3.80;23.50;;;;;;5011181;28;20420;-76
2023/01/21 02:52:19;;;;;;;20.07;18.77;;;3.80;23.00;;;;;;5005344;28;20423;-76
2023/01/21 02:54:53;;;;;;;18.97;17.47;;;4.00;23.00;;;;;;5012308;28;20412;-74
2023/01/21 02:57:39;;;;;;;18.13;16.90;;;4.30;22.50;;;;;;5013023;28;20433;-74
2023/01/21 03:00:11;;;;;;;19.37;17.97;;;4.50;22.00;;;;;;5011221;28;20535;-74
2023/01/21 03:02:40;;;;;;;17.80;16.57;;;4.30;22.40;;;;;;5012512;28;20459;-74
2023/01/21 03:05:05;;;;;;;18.43;17.23;;;4.40;22.30;;;;;;5005125;28;20427;-74
2023/01/21 03:07:31;;;;;;;18.03;16.63;;;4.50;22.10;;;;;;5011758;28;20553;-76
2023/01/21 03:10:16;;;;;;;19.40;17.90;;;4.60;21.90;;;;;;5012385;28;20217;-76
2023/01/21 03:13:12;;;;;;;16.50;15.50;;;4.60;21.60;;;;;;5011937;28;20563;-76
2023/01/21 03:18:37;;;;;;;18.10;16.60;;;4.80;20.90;;;;;;5011584;28;20463;-75
2023/01/21 03:21:14;;;;;;;18.73;17.20;;;4.80;20.70;;;;;;4993780;28;20442;-75
2023/01/21 03:23:43;;;;;;;19.37;18.07;;;4.40;21.20;;;;;;5011406;28;20980;-76
2023/01/21 03:26:12;;;;;;;18.83;17.60;;;4.10;22.20;;;;;;5010282;28;20459;-75
2023/01/21 03:28:44;;;;;;;18.47;17.23;;;4.10;22.40;;;;;;5011625;28;20413;-74
2023/01/21 03:31:33;;;;;;;20.10;18.80;;;3.80;22.60;;;;;;5011359;28;20919;-75
2023/01/21 03:34:02;;;;;;;20.70;19.23;;;3.70;23.00;;;;;;5011058;28;20413;-76
2023/01/21 03:37:00;;;;;;;20.97;19.57;;;3.50;23.80;;;;;;5010297;28;20428;-74
2023/01/21 03:39:40;;;;;;;20.90;19.50;;;3.50;23.60;;;;;;4991893;28;20774;-76
2023/01/21 03:42:06;;;;;;;19.93;18.53;;;3.40;23.90;;;;;;5008849;28;20420;-73
2023/01/21 03:44:32;;;;;;;21.40;19.90;;;3.50;23.80;;;;;;5011534;28;20417;-76
2023/01/21 03:47:13;;;;;;;19.67;18.37;;;3.70;23.50;;;;;;5010948;28;20525;-75
2023/01/21 03:49:46;;;;;;;18.67;17.47;;;3.90;22.80;;;;;;5011297;28;20894;-75
2023/01/21 03:52:13;;;;;;;18.10;17.00;;;3.70;22.70;;;;;;5010612;28;20439;-74
2023/01/21 03:54:39;;;;;;;18.80;17.50;;;3.40;23.50;;;;;;5011717;28;20416;-76
2023/01/21 03:57:05;;;;;;;19.37;17.63;;;3.30;24.70;;;;;;5002405;28;20443;-76
2023/01/21 03:59:31;;;;;;;19.23;17.93;;;3.10;24.60;;;;;;5009897;28;20408;-75
2023/01/21 04:01:57;;;;;;;17.27;16.20;;;2.80;25.40;;;;;;5008837;28;20454;-75
2023/01/21 04:04:22;;;;;;;19.50;18.30;;;2.70;25.50;;;;;;5009987;28;20420;-74
2023/01/21 04:06:48;;;;;;;18.80;17.40;;;2.70;25.40;;;;;;5008897;28;20221;-74
2023/01/21 04:09:13;;;;;;;19.70;18.40;;;2.50;25.80;;;;;;5008974;28;20182;-74
2023/01/21 04:11:39;;;;;;;19.47;18.17;;;2.50;26.10;;;;;;5010012;28;20700;-75
2023/01/21 04:14:04;;;;;;;19.17;17.97;;;2.40;26.80;;;;;;4993989;28;20615;-75
2023/01/21 04:16:30;;;;;;;18.10;17.00;;;2.40;26.60;;;;;;5012272;28;20566;-76
2023/01/21 04:18:55;;;;;;;18.43;17.23;;;2.30;26.90;;;;;;5010571;28;20674;-74
2023/01/21 04:21:21;;;;;;;19.60;18.40;;;2.30;26.80;;;;;;5011919;28;20219;-74
2023/01/21 04:23:46;;;;;;;19.10;17.87;;;2.30;27.10;;;;;;5009645;28;20718;-75
2023/01/21 04:26:12;;;;;;;18.70;17.50;;;2.50;27.30;;;;;;4993630;28;20217;-75
2023/01/21 04:28:38;;;;;;;17.83;16.73;;;2.90;26.20;;;;;;5010137;28;20201;-77
2023/01/21 04:31:03;;;;;;;19.23;17.93;;;3.20;25.10;;;;;;5011236;28;20743;-73
2023/01/21 04:33:29;;;;;;;18.53;17.33;;;3.40;24.60;;;;;;5010681;28;20651;-75
2023/01/21 04:35:58;;;;;;;18.33;17.13;;;3.60;24.20;;;;;;5010339;28;20203;-75
2023/01/21 04:38:24;;;;;;;17.50;16.43;;;3.80;23.50;;;;;;4992578;28;20200;-75
2023/01/21 04:40:50;;;;;;;17.03;15.90;;;4.00;22.80;;;;;;5010488;28;20404;-75
2023/01/21 04:43:15;;;;;;;17.83;16.63;;;4.20;22.30;;;;;;5009799;28;20192;-74
2023/01/21 04:45:41;;;;;;;19.37;18.07;;;4.30;22.30;;;;;;5010264;28;20205;-75
2023/01/21 04:48:06;;;;;;;17.60;16.50;;;4.40;22.10;;;;;;5009774;28;20512;-75
2023/01/21 04:50:32;;;;;;;17.00;15.90;;;4.60;21.70;;;;;;5010364;28;20665;-74
2023/01/21 04:52:58;;;;;;;16.30;15.20;;;4.70;21.00;;;;;;5010116;28;20189;-75
2023/01/21 04:55:23;;;;;;;17.67;16.13;;;4.70;20.60;;;;;;5009500;28;20531;-75
2023/01/21 04:57:49;;;;;;;17.27;16.07;;;4.70;20.60;;;;;;5009386;28;20534;-75
2023/01/21 05:00:15;;;;;;;16.57;15.57;;;4.70;20.60;;;;;;4991864;28;20616;-74
2023/01/21 05:02:40;;;;;;;16.60;15.50;;;4.80;20.20;;;;;;5008281;28;20280;-75
2023/01/21 05:05:06;;;;;;;16.63;15.53;;;4.80;20.10;;;;;;5010013;28;20874;-75
2023/01/21 05:07:32;;;;;;;17.23;16.03;;;4.80;20.10;;;;;;5010285;28;20593;-75
2023/01/21 05:09:57;;;;;;;16.37;15.17;;;4.90;19.60;;;;;;5010909;28;20416;-75
2023/01/21 05:12:23;;;;;;;17.90;16.70;;;4.80;19.20;;;;;;5010592;28;20217;-75
2023/01/21 05:14:53;;;;;;;15.87;14.87;;;4.40;20.40;;;;;;5021987;28;20185;-74
2023/01/21 05:17:18;;;;;;;16.87;15.87;;;4.20;21.10;;;;;;4996880;28;20209;-75
2023/01/21 05:19:44;;;;;;;16.70;15.70;;;4.00;21.70;;;;;;5014124;28;20420;-76
2023/01/21 05:22:10;;;;;;;18.57;17.17;;;3.70;21.80;;;;;;5015802;28;20190;-75
2023/01/21 05:24:35;;;;;;;15.93;14.87;;;3.30;23.40;;;;;;5015143;28;20436;-75
2023/01/21 05:27:01;;;;;;;17.50;16.40;;;3.50;23.00;;;;;;4994398;28;20305;-74
2023/01/21 05:29:26;;;;;;;18.40;17.20;;;3.60;22.60;;;;;;4996920;28;20185;-75
2023/01/21 05:31:52;;;;;;;17.00;15.87;;;3.80;22.40;;;;;;4997126;28;20229;-75
2023/01/21 05:34:17;;;;;;;17.83;16.73;;;4.00;22.10;;;;;;5005473;28;20669;-76
2023/01/21 05:36:43;;;;;;;17.23;16.23;;;4.20;21.80;;;;;;5005789;28;20208;-76
2023/01/21 05:39:08;;;;;;;16.53;15.37;;;4.30;21.20;;;;;;5008109;28;20202;-73
2023/01/21 05:41:34;;;;;;;17.47;16.37;;;4.40;21.20;;;;;;5015544;28;20190;-70
2023/01/21 05:43:59;;;;;;;16.50;15.30;;;4.40;21.00;;;;;;5003396;28;20182;-75
2023/01/21 05:46:25;;;;;;;17.43;16.40;;;4.40;20.70;;;;;;4994542;28;20714;-74
2023/01/21 05:48:51;;;;;;;17.37;16.27;;;4.50;20.90;;;;;;5005067;28;20185;-75
2023/01/21 05:51:16;;;;;;;16.77;15.77;;;4.60;20.50;;;;;;5016957;28;20189;-75
2023/01/21 05:53:42;;;;;;;17.10;16.00;;;4.50;20.50;;;;;;5010496;28;20190;-73
2023/01/21 05:56:07;;;;;;;16.70;15.60;;;4.50;20.40;;;;;;5013425;28;20260;-74
2023/01/21 05:58:33;;;;;;;18.83;17.43;;;4.40;21.30;;;;;;4996397;28;20182;-74
2023/01/21 06:00:59;;;;;;;18.07;16.53;;;4.10;22.20;;;;;;5004194;28;20256;-75
2023/01/21 06:03:25;;;;;;;16.90;15.83;;;4.20;21.90;;;;;;5010704;28;20421;-74
2023/01/21 06:05:51;;;;;;;16.20;15.00;;;4.20;21.50;;;;;;4994470;28;20210;-74
2023/01/21 06:08:16;;;;;;;18.37;16.80;;;4.10;21.50;;;;;;4996491;28;20418;-74
2023/01/21 06:10:42;;;;;;;16.80;15.70;;;3.90;21.80;;;;;;4994666;28;20196;-74
2023/01/21 06:13:10;;;;;;;17.73;16.53;;;3.60;23.30;;;;;;4996575;28;20928;-75
2023/01/21 06:15:36;;;;;;;19.93;18.53;;;3.70;23.40;;;;;;4996105;28;20229;-75
2023/01/21 06:18:02;;;;;;;19.13;17.87;;;3.70;23.70;;;;;;4995582;28;20777;-75
2023/01/21 06:20:29;;;;;;;19.70;18.30;;;3.80;23.90;;;;;;4980205;28;20197;-75
2023/01/21 06:22:55;;;;;;;22.00;20.27;;;3.70;23.90;;;;;;4995703;28;20448;-75
2023/01/21 06:25:21;;;;;;;21.00;19.57;;;3.60;23.50;;;;;;4978466;28;20428;-76
2023/01/21 06:27:46;;;;;;;20.70;19.33;;;3.00;25.50;;;;;;5011599;28;20464;-76
2023/01/21 06:30:12;;;;;;;20.73;19.13;;;3.10;25.60;;;;;;5014153;28;20204;-75
2023/01/21 06:32:38;;;;;;;24.27;22.47;;;3.30;25.00;;;;;;5014836;28;20644;-76
2023/01/21 06:35:04;;;;;;;24.13;22.43;;;3.40;24.60;;;;;;5014586;28;20189;-76
2023/01/21 06:37:29;;;;;;;23.83;22.10;;;3.40;24.60;;;;;;5016059;28;20197;-76
2023/01/21 06:39:55;;;;;;;23.23;21.57;;;3.40;24.60;;;;;;5017865;28;20428;-75
2023/01/21 06:42:21;;;;;;;24.73;22.93;;;3.40;25.30;;;;;;5014358;28;20209;-75
2023/01/21 06:44:46;;;;;;;24.43;22.63;;;3.40;25.00;;;;;;5002199;28;20204;-75
2023/01/21 06:47:12;;;;;;;25.40;23.43;;;3.40;25.10;;;;;;5013645;28;21070;-75
2023/01/21 06:49:38;;;;;;;24.30;22.50;;;3.40;25.20;;;;;;5006495;28;20189;-75
2023/01/21 06:52:04;;;;;;;25.87;23.97;;;3.40;24.90;;;;;;4995336;28;20429;-75
2023/01/21 06:54:29;;;;;;;26.80;24.60;;;3.30;25.10;;;;;;5013975;28;20196;-75
2023/01/21 06:56:55;;;;;;;26.40;24.40;;;3.30;25.00;;;;;;5000113;28;20452;-76
2023/01/21 06:59:21;;;;;;;26.07;24.27;;;3.40;25.10;;;;;;4993566;28;20276;-75
2023/01/21 07:01:46;;;;;;;26.10;24.20;;;3.30;25.00;;;;;;5016673;28;20196;-75
2023/01/21 07:04:12;;;;;;;28.70;26.37;;;3.30;25.20;;;;;;5033000;28;20204;-75
2023/01/21 07:06:38;;;;;;;29.07;26.77;;;3.40;25.30;;;;;;5047542;28;20262;-73
2023/01/21 07:09:04;;;;;;;27.73;25.57;;;3.30;25.30;;;;;;5033962;28;20209;-75
2023/01/21 07:11:30;;;;;;;28.10;26.00;;;3.40;26.70;;;;;;5018669;28;20772;-74
2023/01/21 07:13:56;;;;;;;27.70;25.70;;;3.40;25.60;;;;;;5027864;28;20443;-74
2023/01/21 07:16:22;;;;;;;27.20;25.13;;;3.40;25.00;;;;;;5012040;28;20432;-75
2023/01/21 07:18:47;;;;;;;27.83;25.63;;;3.50;24.90;;;;;;5012242;28;20663;-74
2023/01/21 07:21:13;;;;;;;27.50;25.30;;;3.40;25.00;;;;;;5012567;28;20571;-74
2023/01/21 07:23:39;;;;;;;28.67;26.47;;;3.40;25.10;;;;;;5012538;28;20177;-74
2023/01/21 07:26:04;;;;;;;27.60;25.50;;;3.50;25.00;;;;;;5012928;28;20214;-76
2023/01/21 07:28:30;;;;;;;29.37;26.80;;;3.50;24.80;;;;;;5014353;28;20218;-75
2023/01/21 07:30:58;;;;;;;27.30;25.30;;;3.50;24.80;;;;;;5014349;28;20244;-75
2023/01/21 07:33:24;;;;;;;28.23;26.03;;;3.50;24.70;;;;;;5013718;28;20205;-75
2023/01/21 07:35:50;;;;;;;30.03;27.70;;;3.50;24.80;;;;;;5013987;28;20492;-75
2023/01/21 07:38:15;;;;;;;29.90;27.67;;;3.50;24.60;;;;;;5011864;28;20181;-74
2023/01/21 07:40:41;;;;;;;31.50;29.20;;;3.40;24.70;;;;;;5013816;28;20248;-74
2023/01/21 07:43:07;;;;;;;33.47;30.70;;;3.40;25.20;;;;;;5014094;28;20705;-75
2023/01/21 07:45:33;;;;;;;32.43;29.90;;;3.40;25.30;;;;;;5013862;28;20255;-75
2023/01/21 07:47:59;;;;;;;31.87;29.40;;;3.40;25.00;;;;;;5012228;28;20464;-75
2023/01/21 07:50:24;;;;;;;29.93;27.63;;;3.40;25.10;;;;;;5014202;28;20189;-74
2023/01/21 07:52:52;;;;;;;31.83;29.30;;;3.30;25.70;;;;;;5013538;28;20288;-74
2023/01/21 07:55:18;;;;;;;30.73;28.27;;;3.30;25.20;;;;;;5014011;28;20413;-74
2023/01/21 07:57:46;;;;;;;31.90;29.30;;;3.40;24.90;;;;;;5013601;28;20427;-74
2023/01/21 08:00:13;;;;;;;31.53;29.10;;;3.40;25.10;;;;;;5013756;28;20417;-75
2023/01/21 08:02:39;;;;;;;37.20;34.17;;;3.40;24.90;;;;;;5013140;28;20777;-74
2023/01/21 08:05:05;;;;;;;31.10;28.57;;;3.40;24.80;;;;;;5013666;28;20555;-74
2023/01/21 08:07:31;;;;;;;30.47;28.10;;;3.50;24.90;;;;;;5013746;28;20503;-75
2023/01/21 08:09:57;;;;;;;28.80;26.30;;;3.50;24.80;;;;;;5013883;28;20475;-75
2023/01/21 08:12:22;;;;;;;32.17;29.67;;;3.50;24.50;;;;;;4996151;28;20640;-74
2023/01/21 08:14:48;;;;;;;29.97;27.53;;;3.50;24.80;;;;;;5016820;28;20220;-74
2023/01/21 08:17:13;;;;;;;31.07;28.77;;;3.50;25.10;;;;;;5020004;28;20232;-75
2023/01/21 08:19:39;;;;;;;29.93;27.53;;;3.60;24.80;;;;;;5013884;28;20596;-76
2023/01/21 08:22:04;;;;;;;30.17;27.57;;;3.60;24.50;;;;;;5015900;28;20715;-75
2023/01/21 08:24:30;;;;;;;29.80;27.30;;;3.60;24.50;;;;;;5015379;28;20249;-76
2023/01/21 08:26:57;;;;;;;30.10;27.70;;;3.60;26.20;;;;;;4999879;28;20216;-76
2023/01/21 08:29:23;;;;;;;28.87;26.37;;;3.60;25.20;;;;;;5010901;28;20248;-76
2023/01/21 08:31:49;;;;;;;30.87;28.37;;;3.50;24.70;;;;;;5017656;28;20420;-74
2023/01/21 08:34:15;;;;;;;27.73;25.43;;;3.40;24.50;;;;;;5019858;28;20184;-74
2023/01/21 08:36:40;;;;;;;30.63;28.03;;;3.30;24.60;;;;;;5021008;28;20443;-74
2023/01/21 08:39:06;;;;;;;30.37;27.87;;;3.20;25.20;;;;;;5020937;28;20216;-75
2023/01/21 08:41:32;;;;;;;32.07;29.27;;;3.10;25.90;;;;;;5014003;28;20186;-76
2023/01/21 08:43:57;;;;;;;34.23;31.47;;;3.10;26.10;;;;;;5014304;28;20218;-75
2023/01/21 08:46:23;;;;;;;28.13;25.73;;;3.00;26.70;;;;;;4996494;28;20819;-76
2023/01/21 08:48:48;;;;;;;31.33;28.70;;;3.10;26.00;;;;;;5013596;28;20656;-75
2023/01/21 08:51:14;;;;;;;30.10;27.50;;;3.10;25.60;;;;;;5013952;28;20185;-74
2023/01/21 08:53:39;;;;;;;30.03;27.60;;;3.00;27.20;;;;;;5012624;28;20260;-74
2023/01/21 08:56:05;;;;;;;28.17;25.87;;;3.10;26.30;;;;;;5013995;28;20263;-74
2023/01/21 08:58:31;;;;;;;29.37;26.90;;;3.20;25.70;;;;;;5013107;28;20561;-74
2023/01/21 09:00:57;;;;;;;28.80;26.50;;;3.20;25.30;;;;;;5013754;28;20188;-76
2023/01/21 09:03:23;;;;;;;28.63;26.33;;;3.40;25.20;;;;;;5012267;28;20775;-75
2023/01/21 09:05:51;;;;;;;29.23;26.90;;;3.50;25.00;;;;;;5013514;28;20436;-74
2023/01/21 09:08:17;;;;;;;27.87;25.67;;;3.60;25.00;;;;;;5012065;28;20421;-74
2023/01/21 09:11:01;;;;;;;32.50;29.60;;;3.70;24.70;;;;;;5013345;28;20443;-74
2023/01/21 09:13:37;;;;;;;28.70;26.40;;;3.80;24.80;;;;;;5013417;28;20834;-75
2023/01/21 09:16:19;;;;;;;30.40;27.80;;;3.70;25.20;;;;;;5012083;28;20439;-74
2023/01/21 09:18:46;;;;;;;30.73;28.23;;;3.60;25.30;;;;;;5012267;28;20432;-75
2023/01/21 09:21:12;;;;;;;30.80;28.00;;;3.60;25.30;;;;;;5013613;28;20483;-77
2023/01/21 09:23:39;;;;;;;30.00;27.50;;;3.40;25.30;;;;;;5013509;28;20420;-75
2023/01/21 09:26:23;;;;;;;31.90;29.00;;;3.20;26.50;;;;;;5012891;28;20456;-75
2023/01/21 09:29:00;;;;;;;30.33;27.73;;;3.40;26.30;;;;;;5013694;28;20809;-76
2023/01/21 09:31:27;;;;;;;29.73;27.13;;;3.50;26.10;;;;;;5012105;28;20822;-76
2023/01/21 09:34:01;;;;;;;31.30;28.60;;;3.60;27.90;;;;;;5012967;28;20420;-75
2023/01/21 09:36:29;;;;;;;29.67;27.03;;;3.70;27.90;;;;;;5012306;28;20443;-75
2023/01/21 09:38:55;;;;;;;27.90;25.70;;;3.80;25.90;;;;;;5011165;28;20420;-75
2023/01/21 09:41:26;;;;;;;26.57;24.50;;;3.90;25.30;;;;;;5012738;28;20774;-76
2023/01/21 09:43:59;;;;;;;26.47;24.30;;;3.90;25.10;;;;;;5011908;28;20196;-76
2023/01/21 09:46:39;;;;;;;26.83;24.63;;;3.90;24.80;;;;;;5013369;28;20817;-76
2023/01/21 09:49:10;;;;;;;28.50;26.10;;;4.00;24.80;;;;;;5013475;28;20436;-76
2023/01/21 09:51:48;;;;;;;25.70;23.57;;;4.00;24.40;;;;;;5012559;28;20496;-76
2023/01/21 09:54:25;;;;;;;28.17;25.77;;;3.90;24.40;;;;;;5012200;28;20471;-75
2023/01/21 09:56:55;;;;;;;25.23;23.23;;;3.80;24.60;;;;;;5012370;28;20505;-75
2023/01/21 09:59:49;;;;;;;26.17;24.13;;;3.80;25.60;;;;;;5011856;28;20443;-76
2023/01/21 10:02:40;;;;;;;26.03;23.50;;;3.80;25.30;;;;;;5021975;28;20422;-76
2023/01/21 10:05:06;;;;;;;25.50;23.20;;;3.70;25.20;;;;;;5015186;28;20527;-76
2023/01/21 10:07:47;;;;;;;26.33;24.20;;;3.60;25.20;;;;;;5026757;28;20522;-76
2023/01/21 10:10:40;;;;;;;26.83;24.73;;;3.60;25.60;;;;;;5019316;28;20185;-77
2023/01/21 10:13:17;;;;;;;29.27;26.97;;;3.60;25.80;;;;;;5018458;28;20926;-76
2023/01/21 10:15:57;;;;;;;27.07;24.97;;;3.60;26.10;;;;;;5022142;28;20954;-76
2023/01/21 10:18:27;;;;;;;25.20;23.20;;;3.70;25.80;;;;;;4997649;28;20436;-76
2023/01/21 10:21:02;;;;;;;26.37;24.17;;;3.70;26.10;;;;;;4996693;28;21065;-75
2023/01/21 10:23:37;;;;;;;25.67;23.57;;;3.60;27.50;;;;;;4997238;28;20476;-75
2023/01/21 10:26:08;;;;;;;26.20;23.97;;;3.70;26.30;;;;;;4997852;28;20459;-76
2023/01/21 10:28:38;;;;;;;27.60;25.00;;;3.60;26.90;;;;;;4997658;28;20424;-76
2023/01/21 10:31:20;;;;;;;24.93;22.93;;;3.70;27.10;;;;;;5017667;28;20420;-75
2023/01/21 10:33:45;;;;;;;24.90;22.53;;;3.80;27.20;;;;;;5033212;28;20408;-76
2023/01/21 10:36:14;;;;;;;22.90;21.10;;;3.80;26.20;;;;;;5036573;28;20462;-76
2023/01/21 10:39:04;;;;;;;25.27;23.13;;;3.80;26.20;;;;;;5029858;28;20185;-76
2023/01/21 10:41:48;;;;;;;22.97;21.17;;;3.70;26.40;;;;;;5006350;28;20412;-76
2023/01/21 10:44:27;;;;;;;23.53;21.60;;;3.70;26.30;;;;;;5028494;28;20417;-77
2023/01/21 10:47:04;;;;;;;24.50;22.60;;;3.70;26.50;;;;;;5035528;28;20455;-75
2023/01/21 10:49:54;;;;;;;23.33;21.43;;;3.80;26.50;;;;;;5039988;28;20450;-75
2023/01/21 10:52:49;;;;;;;26.13;23.90;;;3.80;26.70;;;;;;5057856;28;20416;-76
2023/01/21 10:55:32;;;;;;;25.37;23.37;;;4.00;26.40;;;;;;5057229;28;20422;-76
2023/01/21 10:58:03;;;;;;;24.00;22.00;;;4.00;26.50;;;;;;5058348;28;20422;-74
2023/01/21 11:00:35;;;;;;;27.77;25.53;;;4.00;26.20;;;;;;5055686;28;20949;-76
2023/01/21 11:03:07;;;;;;;26.10;23.97;;;4.00;26.20;;;;;;5055807;28;20414;-76
2023/01/21 11:05:33;;;;;;;23.73;21.93;;;4.10;26.20;;;;;;5026455;28;20460;-75
2023/01/21 11:07:59;;;;;;;25.93;23.93;;;4.10;26.30;;;;;;5018030;28;20491;-75
2023/01/21 11:10:26;;;;;;;24.63;22.60;;;4.10;25.90;;;;;;5021795;28;20200;-75
2023/01/21 11:12:55;;;;;;;27.43;25.17;;;4.00;26.10;;;;;;5018429;28;20207;-76
2023/01/21 11:15:22;;;;;;;26.80;24.60;;;3.90;26.60;;;;;;5025312;28;20931;-75
2023/01/21 11:17:52;;;;;;;25.93;23.83;;;3.80;26.70;;;;;;5027551;28;20405;-75
2023/01/21 11:20:32;;;;;;;25.63;23.63;;;3.80;26.90;;;;;;5035484;28;20442;-75
2023/01/21 11:22:59;;;;;;;26.40;24.00;;;3.80;28.10;;;;;;5015264;28;20415;-74
2023/01/21 11:25:40;;;;;;;26.47;24.47;;;3.80;28.10;;;;;;5032562;28;20493;-75
2023/01/21 11:28:25;;;;;;;26.50;24.50;;;3.80;27.90;;;;;;5008410;28;20496;-75
2023/01/21 11:31:11;;;;;;;25.53;23.43;;;3.80;27.80;;;;;;4998114;28;20452;-76
2023/01/21 11:33:38;;;;;;;26.70;24.30;;;3.90;27.40;;;;;;4997165;28;20761;-75
2023/01/21 11:36:18;;;;;;;27.70;25.40;;;3.90;27.30;;;;;;4994428;28;20433;-75
2023/01/21 11:38:46;;;;;;;23.50;21.40;;;3.90;27.70;;;;;;4993806;28;20453;-76
2023/01/21 11:41:11;;;;;;;23.67;21.83;;;4.00;28.20;;;;;;4986403;28;20471;-76
2023/01/21 11:44:17;;;;;;;25.27;23.30;;;3.90;28.20;;;;;;4994572;28;20438;-75
2023/01/21 11:46:43;;;;;;;26.50;22.87;;;4.10;31.30;;;;;;4981363;28;20208;-77
2023/01/21 11:49:08;;;;;;;23.97;21.97;;;4.10;29.30;;;;;;4994608;28;20409;-76
2023/01/21 11:51:36;;;;;;;25.40;23.30;;;4.20;28.40;;;;;;4996367;28;20441;-75
2023/01/21 11:54:13;;;;;;;22.73;20.90;;;4.20;32.30;;;;;;4991898;28;20211;-75
2023/01/21 11:56:42;;;;;;;23.30;21.50;;;4.10;30.30;;;;;;4973889;28;20512;-75
2023/01/21 11:59:23;;;;;;;24.90;22.90;;;4.10;28.70;;;;;;4973678;28;20754;-74
2023/01/21 12:01:56;;;;;;;22.83;20.83;;;4.10;28.20;;;;;;4974799;28;20498;-77
2023/01/21 12:04:23;;;;;;;22.83;20.97;;;4.10;29.90;;;;;;4993040;28;20792;-77
2023/01/21 12:06:52;;;;;;;22.67;20.77;;;4.10;31.20;;;;;;4994144;28;20544;-75
2023/01/21 12:09:19;;;;;;;23.10;21.30;;;4.20;29.50;;;;;;4992735;28;20505;-74
2023/01/21 12:12:04;;;;;;;22.97;21.20;;;4.10;29.20;;;;;;4997853;28;20397;-75
2023/01/21 12:14:42;;;;;;;25.43;23.30;;;4.10;29.30;;;;;;5003504;28;20497;-73
2023/01/21 12:17:29;;;;;;;23.27;21.27;;;4.00;28.70;;;;;;5002949;28;20425;-74
2023/01/21 12:19:54;;;;;;;24.20;22.40;;;4.00;30.20;;;;;;5003278;28;20417;-75
2023/01/21 12:22:39;;;;;;;24.37;22.50;;;4.00;30.20;;;;;;5000730;28;20429;-75
2023/01/21 12:25:41;;;;;;;24.37;22.37;;;4.00;29.20;;;;;;4994691;28;20549;-76
2023/01/21 12:28:23;;;;;;;23.60;21.60;;;4.00;28.20;;;;;;5004355;28;20973;-76
2023/01/21 12:31:21;;;;;;;23.47;21.57;;;3.90;27.80;;;;;;5012522;28;20507;-76
2023/01/21 12:34:07;;;;;;;23.80;21.90;;;3.90;27.80;;;;;;5005583;28;20452;-76
2023/01/21 12:36:41;;;;;;;23.73;21.83;;;4.00;27.60;;;;;;4992428;28;20437;-76
2023/01/21 12:39:17;;;;;;;24.20;22.30;;;4.00;27.30;;;;;;4994344;28;20413;-77
2023/01/21 12:41:50;;;;;;;24.93;22.90;;;3.90;27.60;;;;;;5010303;28;20440;-76
2023/01/21 12:44:44;;;;;;;24.17;22.30;;;3.90;27.50;;;;;;5013089;28;20843;-76
2023/01/21 12:47:24;;;;;;;24.37;22.37;;;3.90;27.50;;;;;;5014738;28;20543;-76
2023/01/21 12:50:03;;;;;;;25.03;23.03;;;3.90;27.30;;;;;;5014619;28;20431;-77
2023/01/21 12:52:53;;;;;;;24.43;22.13;;;3.80;28.10;;;;;;5015605;28;20396;-76
2023/01/21 12:55:30;;;;;;;24.37;22.37;;;3.80;28.10;;;;;;4992609;28;20431;-77
2023/01/21 12:58:01;;;;;;;23.63;21.63;;;4.00;28.10;;;;;;5014287;28;20415;-76
2023/01/21 13:00:34;;;;;;;24.17;22.27;;;3.90;27.40;;;;;;5014252;28;20408;-77